Time;durP1;ratioP1;P1;durP2;ratioP2;P2;SDS_P1;SDS_P2;PMS_P1;PMS_P2;Temp;Humidity;BMP_temperature;BMP_pressure;BME280_temperature;BME280_humidity;BME280_pressure;Samples;Min_cycle;Max_cycle;Signal;HPM_P1;HPM_P2
2022/08/17 00:01:00;;;;;;;6.38;5.13;;;23.50;99.90;;;;;;5115131;28;20164;-41
2022/08/17 00:03:32;;;;;;;8.02;6.22;;;23.40;99.90;;;;;;5115176;28;20161;-41
2022/08/17 00:06:12;;;;;;;7.75;5.10;;;23.40;99.90;;;;;;5115052;28;20169;-42
2022/08/17 00:08:50;;;;;;;7.72;5.72;;;23.30;99.90;;;;;;5114925;28;20643;-41
2022/08/17 00:11:23;;;;;;;7.32;5.25;;;23.30;99.90;;;;;;5115363;28;20199;-41
2022/08/17 00:13:56;;;;;;;6.85;5.03;;;23.30;99.90;;;;;;5115026;28;20235;-41
2022/08/17 00:16:30;;;;;;;8.65;4.88;;;23.30;99.90;;;;;;5115162;28;20177;-42
2022/08/17 00:18:59;;;;;;;5.78;5.18;;;23.30;99.90;;;;;;5115066;28;20164;-45
2022/08/17 00:21:25;;;;;;;7.95;5.53;;;23.20;99.90;;;;;;5114769;28;20248;-48
2022/08/17 00:23:51;;;;;;;6.40;5.80;;;23.30;99.90;;;;;;5114733;28;20260;-42
2022/08/17 00:26:18;;;;;;;6.53;5.13;;;23.20;99.90;;;;;;5115245;28;20169;-43
2022/08/17 00:28:44;;;;;;;5.15;4.65;;;23.20;99.90;;;;;;5114960;28;20165;-44
2022/08/17 00:31:10;;;;;;;5.70;4.90;;;23.20;99.90;;;;;;5114696;28;20177;-45
2022/08/17 00:33:39;;;;;;;9.70;4.97;;;23.10;99.90;;;;;;5114609;28;20247;-47
2022/08/17 00:36:06;;;;;;;5.60;4.90;;;23.10;99.90;;;;;;5114511;28;20234;-44
2022/08/17 00:38:33;;;;;;;6.38;5.00;;;22.90;99.90;;;;;;5114791;28;20176;-48
2022/08/17 00:41:04;;;;;;;7.47;5.35;;;22.90;99.90;;;;;;5114656;28;20203;-44
2022/08/17 00:43:45;;;;;;;5.88;4.70;;;23.00;99.90;;;;;;5114462;28;20161;-45
2022/08/17 00:46:16;;;;;;;7.15;5.10;;;23.00;99.90;;;;;;5114405;28;20161;-44
2022/08/17 00:48:42;;;;;;;6.93;5.00;;;23.00;99.90;;;;;;5114197;28;20176;-45
2022/08/17 00:51:27;;;;;;;8.25;5.07;;;23.00;99.90;;;;;;5114202;28;20184;-45
2022/08/17 00:54:13;;;;;;;8.52;5.13;;;22.80;99.90;;;;;;5114253;28;20620;-43
2022/08/17 00:56:45;;;;;;;5.43;4.93;;;22.70;99.90;;;;;;5114137;28;20189;-44
2022/08/17 00:59:14;;;;;;;6.45;5.18;;;22.60;99.90;;;;;;5114132;28;20526;-46
2022/08/17 01:01:41;;;;;;;8.50;5.38;;;22.60;99.90;;;;;;5113272;28;20628;-46
2022/08/17 01:04:08;;;;;;;8.02;5.07;;;22.70;99.90;;;;;;5114025;28;20708;-49
2022/08/17 01:06:34;;;;;;;5.80;4.95;;;22.70;99.90;;;;;;5113971;28;20171;-42
2022/08/17 01:09:00;;;;;;;8.30;4.82;;;22.60;99.90;;;;;;5114076;28;20610;-42
2022/08/17 01:11:28;;;;;;;5.97;5.38;;;22.60;99.90;;;;;;5113869;28;20221;-42
2022/08/17 01:13:53;;;;;;;6.97;5.13;;;22.60;99.90;;;;;;5113660;28;20236;-41
2022/08/17 01:16:28;;;;;;;9.93;5.13;;;22.60;99.90;;;;;;5114419;28;20208;-43
2022/08/17 01:18:59;;;;;;;5.78;5.28;;;22.50;99.90;;;;;;5113797;28;20209;-42
2022/08/17 01:21:42;;;;;;;8.50;6.57;;;22.50;99.90;;;;;;5113953;28;20177;-42
2022/08/17 01:24:08;;;;;;;7.35;6.15;;;22.60;99.90;;;;;;5113670;28;20165;-41
2022/08/17 01:26:34;;;;;;;9.48;5.35;;;22.60;99.90;;;;;;5113636;28;20161;-41
2022/08/17 01:29:03;;;;;;;10.18;6.88;;;22.40;99.90;;;;;;5113750;28;20248;-42
2022/08/17 01:31:49;;;;;;;14.70;10.25;;;22.40;99.90;;;;;;5095953;28;20173;-42
2022/08/17 01:34:16;;;;;;;25.85;14.55;;;22.40;99.90;;;;;;5095981;28;20287;-41
2022/08/17 01:36:45;;;;;;;17.55;10.80;;;22.40;99.90;;;;;;5113651;28;20538;-41
2022/08/17 01:39:28;;;;;;;22.88;11.88;;;22.40;99.90;;;;;;5113621;28;20561;-41
2022/08/17 01:42:03;;;;;;;23.75;9.05;;;22.30;99.90;;;;;;5113271;28;20205;-41
2022/08/17 01:44:29;;;;;;;12.45;8.70;;;22.30;99.90;;;;;;5113159;28;20172;-41
2022/08/17 01:46:54;;;;;;;8.23;5.93;;;22.40;99.90;;;;;;5113205;28;20169;-41
2022/08/17 01:49:20;;;;;;;9.50;6.78;;;22.40;99.90;;;;;;5113109;28;20194;-42
2022/08/17 01:51:46;;;;;;;11.00;7.00;;;22.30;99.90;;;;;;5113418;28;20164;-41
2022/08/17 01:54:14;;;;;;;7.38;6.68;;;22.30;99.90;;;;;;5112948;28;20235;-41
2022/08/17 01:56:43;;;;;;;6.63;5.82;;;22.30;99.90;;;;;;5113194;28;20172;-42
2022/08/17 01:59:10;;;;;;;6.80;6.05;;;22.30;99.90;;;;;;5112873;28;20707;-42
2022/08/17 02:01:36;;;;;;;9.90;6.63;;;22.30;99.90;;;;;;5113233;28;20191;-41
2022/08/17 02:04:04;;;;;;;6.57;5.97;;;22.30;99.90;;;;;;5112787;28;20255;-43
2022/08/17 02:06:33;;;;;;;6.65;5.82;;;22.30;99.90;;;;;;5112775;28;20623;-42
2022/08/17 02:08:59;;;;;;;8.90;6.95;;;22.30;99.90;;;;;;5112788;28;20161;-42
2022/08/17 02:11:24;;;;;;;6.75;5.43;;;22.30;99.90;;;;;;5112724;28;20642;-42
2022/08/17 02:13:50;;;;;;;7.35;5.70;;;22.30;99.90;;;;;;5112532;28;20215;-42
2022/08/17 02:16:16;;;;;;;7.47;5.95;;;22.30;99.90;;;;;;5113260;28;20176;-41
2022/08/17 02:18:42;;;;;;;9.88;5.90;;;22.30;99.90;;;;;;5112594;28;20520;-42
2022/08/17 02:21:08;;;;;;;6.30;5.22;;;22.30;99.90;;;;;;5112564;28;20161;-42
2022/08/17 02:23:39;;;;;;;9.30;5.30;;;22.20;99.90;;;;;;5112547;28;20244;-41
2022/08/17 02:26:05;;;;;;;7.75;5.18;;;22.20;99.90;;;;;;5112489;28;20537;-41
2022/08/17 02:28:31;;;;;;;5.50;5.00;;;22.20;99.90;;;;;;5112422;28;20568;-42
2022/08/17 02:31:02;;;;;;;7.40;4.78;;;22.10;99.90;;;;;;5112327;28;20255;-41
2022/08/17 02:33:28;;;;;;;5.22;4.65;;;22.20;99.90;;;;;;5112227;28;20160;-42
2022/08/17 02:35:53;;;;;;;5.07;4.65;;;22.20;99.90;;;;;;5112214;28;20246;-42
2022/08/17 02:38:19;;;;;;;5.07;4.53;;;22.20;99.90;;;;;;5112560;28;20169;-42
2022/08/17 02:40:45;;;;;;;8.00;5.00;;;22.20;99.90;;;;;;5112632;28;20198;-41
2022/08/17 02:43:12;;;;;;;6.22;5.53;;;22.20;99.90;;;;;;5112611;28;20169;-42
2022/08/17 02:45:38;;;;;;;7.45;5.50;;;22.20;99.90;;;;;;5112165;28;20288;-41
2022/08/17 02:48:04;;;;;;;8.60;5.53;;;22.10;99.90;;;;;;5112157;28;20160;-42
2022/08/17 02:50:30;;;;;;;10.20;6.05;;;22.20;99.90;;;;;;5112460;28;20306;-41
2022/08/17 02:52:55;;;;;;;7.00;5.97;;;22.10;99.90;;;;;;5112253;28;20229;-41
2022/08/17 02:55:24;;;;;;;10.27;5.85;;;22.10;99.90;;;;;;5112259;28;20207;-41
2022/08/17 02:57:50;;;;;;;6.47;5.85;;;22.00;99.90;;;;;;5112130;28;20157;-41
2022/08/17 03:00:20;;;;;;;8.00;6.57;;;22.00;99.90;;;;;;5112468;28;20581;-42
2022/08/17 03:02:46;;;;;;;7.32;6.35;;;21.50;99.90;;;;;;5112453;28;20231;-42
2022/08/17 03:05:14;;;;;;;7.13;5.93;;;22.10;99.90;;;;;;5112094;28;20164;-42
2022/08/17 03:07:40;;;;;;;9.13;5.93;;;22.10;99.90;;;;;;5112064;28;20161;-41
2022/08/17 03:10:08;;;;;;;8.70;6.13;;;22.10;99.90;;;;;;5112014;28;20644;-41
2022/08/17 03:12:37;;;;;;;6.82;6.10;;;22.10;99.90;;;;;;5111982;28;20643;-42
2022/08/17 03:15:05;;;;;;;7.60;6.00;;;22.10;99.90;;;;;;5111936;28;20219;-42
2022/08/17 03:17:31;;;;;;;7.80;6.50;;;22.00;99.90;;;;;;5111908;28;20675;-41
2022/08/17 03:19:57;;;;;;;8.80;5.93;;;22.00;99.90;;;;;;5112044;28;20199;-41
2022/08/17 03:22:23;;;;;;;8.32;6.28;;;22.00;99.90;;;;;;5111995;28;20248;-42
2022/08/17 03:24:49;;;;;;;9.15;6.25;;;21.90;99.90;;;;;;5113862;28;20188;-41
2022/08/17 03:27:14;;;;;;;10.65;6.50;;;22.00;99.90;;;;;;5116261;28;20570;-41
2022/08/17 03:29:40;;;;;;;6.28;5.72;;;21.90;99.90;;;;;;5115909;28;20165;-42
2022/08/17 03:32:13;;;;;;;6.30;5.63;;;21.90;99.90;;;;;;5115698;28;20259;-41
2022/08/17 03:34:39;;;;;;;6.70;5.95;;;21.80;99.90;;;;;;5115510;28;20196;-42
2022/08/17 03:37:05;;;;;;;9.63;5.45;;;21.90;99.90;;;;;;5115691;28;20171;-41
2022/08/17 03:39:31;;;;;;;8.50;6.40;;;21.90;99.90;;;;;;5115725;28;20165;-43
2022/08/17 03:42:11;;;;;;;8.68;7.35;;;21.90;99.90;;;;;;5115679;28;20628;-42
2022/08/17 03:44:36;;;;;;;9.30;7.05;;;21.90;99.90;;;;;;5115544;28;20164;-41
2022/08/17 03:57:59;;;;;;;8.32;7.07;;;21.80;99.90;;;;;;5115273;28;20200;-43
2022/08/17 04:00:26;;;;;;;8.68;6.53;;;21.80;99.90;;;;;;5115464;28;20184;-45
2022/08/17 04:02:52;;;;;;;10.45;7.57;;;21.80;99.90;;;;;;5115222;28;20189;-44
2022/08/17 04:05:17;;;;;;;8.27;7.07;;;21.80;99.90;;;;;;5115613;28;20169;-45
2022/08/17 04:07:43;;;;;;;10.55;6.80;;;21.70;99.90;;;;;;5115122;28;20173;-48
2022/08/17 04:10:09;;;;;;;6.75;6.15;;;21.70;99.90;;;;;;5114970;28;20190;-45
2022/08/17 04:12:54;;;;;;;10.05;6.22;;;21.70;99.90;;;;;;5115341;28;20179;-42
2022/08/17 04:15:21;;;;;;;7.07;5.57;;;21.70;99.90;;;;;;5114936;28;20212;-41
2022/08/17 04:17:47;;;;;;;8.70;5.93;;;21.70;99.90;;;;;;5115560;28;20498;-43
2022/08/17 04:20:14;;;;;;;6.82;5.43;;;21.70;99.90;;;;;;5114854;28;20165;-41
2022/08/17 04:22:55;;;;;;;9.32;5.47;;;21.70;99.90;;;;;;5114694;28;20165;-41
2022/08/17 04:25:21;;;;;;;10.10;5.55;;;21.70;99.90;;;;;;5114943;28;20183;-42
2022/08/17 04:27:47;;;;;;;6.63;4.65;;;21.80;99.90;;;;;;5115003;28;20506;-43
2022/08/17 04:30:14;;;;;;;10.18;5.55;;;21.70;99.90;;;;;;5114627;28;20177;-42
2022/08/17 04:32:51;;;;;;;8.50;5.20;;;21.70;99.90;;;;;;5114565;28;20160;-42
2022/08/17 04:35:23;;;;;;;6.45;4.80;;;21.70;99.90;;;;;;5096145;28;20670;-41
2022/08/17 04:37:49;;;;;;;6.57;4.40;;;21.70;99.90;;;;;;5114213;28;20160;-41
2022/08/17 04:43:07;;;;;;;6.00;4.90;;;21.70;99.90;;;;;;5114672;28;20229;-45
2022/08/17 04:45:36;;;;;;;6.22;4.60;;;21.80;99.90;;;;;;5114660;28;20214;-42
2022/08/17 04:48:03;;;;;;;5.35;4.85;;;21.80;99.90;;;;;;5113861;28;20187;-42
2022/08/17 04:50:28;;;;;;;5.95;4.63;;;21.80;99.90;;;;;;5114142;28;20541;-43
2022/08/17 04:52:54;;;;;;;7.70;4.95;;;21.80;99.90;;;;;;5114269;28;20176;-41
2022/08/17 04:55:20;;;;;;;4.72;4.20;;;21.80;99.90;;;;;;5114329;28;20740;-41
2022/08/17 04:57:45;;;;;;;4.88;4.15;;;21.80;99.90;;;;;;5114560;28;20233;-41
2022/08/17 05:00:11;;;;;;;5.80;4.07;;;21.80;99.90;;;;;;5114097;28;20623;-40
2022/08/17 05:02:47;;;;;;;4.97;4.00;;;21.80;99.90;;;;;;5113878;28;20160;-41
2022/08/17 05:05:28;;;;;;;4.70;3.88;;;21.80;99.90;;;;;;5113787;28;20176;-41
2022/08/17 05:07:57;;;;;;;5.05;3.80;;;21.70;99.90;;;;;;5096009;28;20198;-41
2022/08/17 05:10:26;;;;;;;6.43;4.07;;;21.70;99.90;;;;;;5113835;28;20169;-41
2022/08/17 05:13:19;;;;;;;4.80;4.05;;;21.80;99.90;;;;;;5113618;28;20157;-42
2022/08/17 05:15:46;;;;;;;8.23;3.92;;;21.80;99.90;;;;;;5111610;28;20220;-41
2022/08/17 05:18:12;;;;;;;4.55;4.10;;;21.80;99.90;;;;;;5113736;28;20508;-42
2022/08/17 05:20:39;;;;;;;7.85;3.75;;;21.80;99.90;;;;;;5113787;28;20171;-41
2022/08/17 05:23:08;;;;;;;4.47;4.07;;;21.80;99.90;;;;;;5113540;28;20183;-41
2022/08/17 05:25:39;;;;;;;3.72;3.35;;;21.90;99.90;;;;;;5113518;28;20238;-42
2022/08/17 05:28:06;;;;;;;4.90;4.03;;;21.90;99.90;;;;;;5112737;28;20616;-42
2022/08/17 05:30:32;;;;;;;8.25;4.82;;;21.70;99.90;;;;;;5113375;28;20578;-41
2022/08/17 05:33:03;;;;;;;7.03;4.90;;;21.60;99.90;;;;;;5113112;28;20186;-41
2022/08/17 05:35:31;;;;;;;8.50;5.03;;;21.60;99.90;;;;;;5112976;28;20674;-44
2022/08/17 05:37:57;;;;;;;8.35;5.45;;;21.70;99.90;;;;;;5112553;28;20192;-41
2022/08/17 05:40:24;;;;;;;4.68;4.28;;;21.80;99.90;;;;;;5112920;28;20207;-41
2022/08/17 05:43:01;;;;;;;11.13;5.63;;;21.90;99.90;;;;;;5113094;28;20169;-42
2022/08/17 05:45:28;;;;;;;8.23;5.30;;;21.90;99.90;;;;;;5113028;28;20521;-41
2022/08/17 05:47:53;;;;;;;6.95;5.00;;;22.10;99.90;;;;;;5112617;28;20175;-41
2022/08/17 05:50:24;;;;;;;8.10;4.90;;;22.10;99.90;;;;;;5112882;28;20243;-41
2022/08/17 05:53:13;;;;;;;7.28;4.82;;;22.20;99.90;;;;;;5113130;28;20499;-42
2022/08/17 05:55:56;;;;;;;6.38;5.03;;;22.30;99.90;;;;;;5112824;28;20280;-42
2022/08/17 05:59:01;;;;;;;7.68;5.05;;;22.40;99.90;;;;;;5112805;28;20160;-42
2022/08/17 06:01:33;;;;;;;6.32;4.85;;;22.50;99.90;;;;;;5112763;28;20157;-42
2022/08/17 06:04:15;;;;;;;5.22;4.70;;;22.60;99.90;;;;;;5113122;28;20169;-42
2022/08/17 06:06:47;;;;;;;5.03;4.32;;;22.70;99.90;;;;;;5112797;28;20248;-45
2022/08/17 06:09:50;;;;;;;4.57;4.00;;;22.70;99.90;;;;;;5112793;28;20198;-45
2022/08/17 06:12:31;;;;;;;8.90;4.35;;;22.70;99.90;;;;;;5099787;28;20184;-42
2022/08/17 06:15:23;;;;;;;5.78;4.57;;;22.80;99.90;;;;;;5112362;28;20691;-45
2022/08/17 06:17:52;;;;;;;6.88;4.38;;;22.90;99.90;;;;;;5094360;28;20172;-41
2022/08/17 06:20:17;;;;;;;5.22;4.13;;;23.00;99.90;;;;;;5112904;28;20171;-42
2022/08/17 06:22:48;;;;;;;6.68;4.47;;;23.10;99.90;;;;;;5113232;28;20530;-44
2022/08/17 06:25:17;;;;;;;7.00;4.32;;;23.10;99.90;;;;;;5112867;28;20161;-41
2022/08/17 06:27:55;;;;;;;4.95;4.47;;;23.10;99.90;;;;;;5112868;28;20200;-42
2022/08/17 06:30:29;;;;;;;5.47;4.60;;;23.10;99.90;;;;;;5112430;28;20255;-40
2022/08/17 06:33:01;;;;;;;6.78;4.68;;;23.00;99.90;;;;;;5112422;28;20251;-48
2022/08/17 06:35:52;;;;;;;10.00;5.10;;;23.00;99.90;;;;;;5112486;28;20295;-43
2022/08/17 06:38:32;;;;;;;7.03;5.20;;;23.00;99.90;;;;;;5112683;28;20161;-43
2022/08/17 06:41:44;;;;;;;5.78;5.03;;;23.00;99.90;;;;;;5112302;28;20188;-50
2022/08/17 06:44:31;;;;;;;7.18;6.18;;;23.10;99.90;;;;;;5084212;28;20191;-44
2022/08/17 06:47:09;;;;;;;7.40;5.50;;;23.20;99.90;;;;;;5112332;28;20172;-46
2022/08/17 06:49:50;;;;;;;8.07;5.95;;;23.20;99.90;;;;;;5112481;28;20172;-45
2022/08/17 06:52:33;;;;;;;7.22;6.18;;;23.30;99.90;;;;;;5112609;28;20255;-43
2022/08/17 06:55:09;;;;;;;8.23;5.57;;;23.40;99.90;;;;;;5112387;28;20208;-42
2022/08/17 06:57:40;;;;;;;6.43;5.47;;;23.50;99.90;;;;;;5112133;28;20176;-47
2022/08/17 07:00:18;;;;;;;6.10;5.32;;;23.50;99.90;;;;;;5114506;28;20153;-42
2022/08/17 07:03:11;;;;;;;10.55;5.93;;;23.50;99.90;;;;;;5116791;28;20216;-44
2022/08/17 07:05:51;;;;;;;8.05;6.10;;;23.50;99.90;;;;;;5116284;28;20168;-44
2022/08/17 07:08:21;;;;;;;8.27;5.55;;;23.60;99.90;;;;;;5116547;28;20217;-48
2022/08/17 07:10:52;;;;;;;8.43;5.93;;;23.70;99.90;;;;;;5116676;28;20164;-50
2022/08/17 07:13:30;;;;;;;8.40;6.00;;;23.70;99.90;;;;;;5116048;28;20213;-44
2022/08/17 07:16:25;;;;;;;7.60;6.05;;;23.80;99.90;;;;;;5115990;28;20284;-47
2022/08/17 07:18:53;;;;;;;9.43;7.15;;;23.80;99.90;;;;;;5116132;28;20522;-43
2022/08/17 07:21:27;;;;;;;7.70;6.03;;;23.70;99.90;;;;;;5116073;28;20173;-47
2022/08/17 07:24:07;;;;;;;9.20;6.50;;;23.70;99.90;;;;;;5116024;28;20164;-44
2022/08/17 07:26:32;;;;;;;8.60;6.18;;;23.70;99.90;;;;;;5115876;28;20165;-50
2022/08/17 07:29:01;;;;;;;8.95;6.75;;;23.70;99.90;;;;;;5115869;28;20637;-47
2022/08/17 07:31:29;;;;;;;11.02;7.00;;;23.80;99.90;;;;;;5116105;28;20175;-49
2022/08/17 07:34:13;;;;;;;8.50;6.88;;;23.80;99.90;;;;;;5115851;28;20204;-46
2022/08/17 07:36:40;;;;;;;7.57;6.55;;;23.70;99.90;;;;;;5115659;28;20180;-47
2022/08/17 07:39:08;;;;;;;12.35;6.55;;;23.80;99.90;;;;;;5115661;28;20199;-47
2022/08/17 07:41:40;;;;;;;9.57;6.88;;;23.70;99.90;;;;;;5115913;28;20172;-43
2022/08/17 07:44:12;;;;;;;8.80;6.90;;;23.70;99.90;;;;;;5115539;28;20606;-44
2022/08/17 07:49:39;;;;;;;9.80;7.95;;;23.70;99.90;;;;;;5115760;28;20207;-42
2022/08/17 07:52:15;;;;;;;8.40;7.15;;;23.70;99.90;;;;;;5115600;28;20260;-42
2022/08/17 07:54:41;;;;;;;13.95;7.00;;;23.70;99.90;;;;;;5115334;28;20235;-44
2022/08/17 07:57:12;;;;;;;10.30;6.43;;;23.80;99.90;;;;;;5115386;28;20168;-41
2022/08/17 07:59:41;;;;;;;7.47;6.43;;;24.00;99.90;;;;;;5115285;28;20161;-41
2022/08/17 08:02:14;;;;;;;9.90;7.00;;;24.10;99.90;;;;;;5115060;28;20179;-41
2022/08/17 08:04:57;;;;;;;8.15;6.85;;;24.20;99.90;;;;;;5115248;28;20156;-47
2022/08/17 08:07:33;;;;;;;8.07;7.28;;;24.10;99.90;;;;;;5098544;28;20251;-42
2022/08/17 08:10:10;;;;;;;7.80;7.00;;;24.00;99.90;;;;;;5114839;28;20168;-41
2022/08/17 08:12:36;;;;;;;7.40;6.70;;;24.10;99.90;;;;;;5114981;28;20165;-42
2022/08/17 08:15:17;;;;;;;8.68;7.18;;;24.20;99.90;;;;;;5114965;28;20219;-48
2022/08/17 08:17:57;;;;;;;9.25;7.07;;;24.10;99.90;;;;;;5114937;28;20188;-43
2022/08/17 08:20:39;;;;;;;9.55;7.32;;;23.90;99.90;;;;;;5115178;28;20192;-45
2022/08/17 08:23:38;;;;;;;9.80;7.68;;;23.80;99.90;;;;;;5115071;28;20198;-48
2022/08/17 08:26:13;;;;;;;9.75;7.55;;;23.70;99.90;;;;;;5114719;28;20161;-44
2022/08/17 08:28:57;;;;;;;8.65;7.78;;;23.60;99.90;;;;;;5114942;28;20195;-43
2022/08/17 08:31:29;;;;;;;9.10;7.45;;;23.60;99.90;;;;;;5114959;28;20515;-43
2022/08/17 08:34:28;;;;;;;8.75;7.82;;;23.60;99.90;;;;;;5114857;28;20169;-41
2022/08/17 08:36:59;;;;;;;10.35;7.45;;;23.60;99.90;;;;;;5114815;28;20225;-44
2022/08/17 08:39:40;;;;;;;9.80;7.65;;;23.60;99.90;;;;;;5114632;28;20210;-43
2022/08/17 08:42:09;;;;;;;16.50;8.50;;;23.60;99.90;;;;;;5114526;28;20550;-44
2022/08/17 08:44:57;;;;;;;9.25;7.88;;;23.40;99.90;;;;;;5114540;28;20172;-43
2022/08/17 08:47:35;;;;;;;9.98;8.00;;;23.40;99.90;;;;;;5096209;28;20590;-41
2022/08/17 08:50:39;;;;;;;9.48;8.52;;;23.50;99.90;;;;;;5114437;28;20183;-41
2022/08/17 08:53:33;;;;;;;10.57;7.68;;;23.40;99.90;;;;;;5114492;28;20268;-42
2022/08/17 08:56:22;;;;;;;17.13;7.97;;;23.50;99.90;;;;;;5114587;28;20212;-43
2022/08/17 08:58:52;;;;;;;9.65;8.23;;;23.50;99.90;;;;;;5114767;28;20632;-43
2022/08/17 09:01:50;;;;;;;8.93;7.82;;;23.40;99.90;;;;;;5114480;28;20169;-42
2022/08/17 09:04:25;;;;;;;9.32;8.25;;;23.60;99.90;;;;;;5114406;28;20571;-42
2022/08/17 09:07:26;;;;;;;9.48;7.85;;;23.50;99.90;;;;;;5114009;28;20522;-41
2022/08/17 09:10:02;;;;;;;12.38;8.82;;;23.50;99.90;;;;;;5095654;28;20699;-42
2022/08/17 09:13:03;;;;;;;12.00;7.55;;;23.50;99.90;;;;;;5113841;28;20209;-41
2022/08/17 09:15:36;;;;;;;9.70;8.18;;;23.50;99.90;;;;;;5065230;28;20222;-43
2022/08/17 09:18:25;;;;;;;10.48;9.13;;;23.50;99.90;;;;;;5093089;28;20176;-41
2022/08/17 09:21:04;;;;;;;9.98;8.70;;;23.40;99.90;;;;;;5093927;28;20176;-47
2022/08/17 09:23:58;;;;;;;9.45;8.25;;;23.50;99.90;;;;;;5092313;28;20161;-44
2022/08/17 09:26:35;;;;;;;10.10;8.52;;;23.60;99.90;;;;;;5091906;28;20169;-48
2022/08/17 09:29:07;;;;;;;10.10;8.80;;;23.80;99.90;;;;;;5092906;28;20169;-47
2022/08/17 09:31:40;;;;;;;13.48;8.55;;;23.70;99.90;;;;;;5092769;28;20671;-45
2022/08/17 09:34:14;;;;;;;9.88;8.88;;;23.60;99.90;;;;;;5092870;28;20176;-49
2022/08/17 09:37:02;;;;;;;10.20;8.90;;;23.40;99.90;;;;;;5093213;28;20185;-49
2022/08/17 09:39:40;;;;;;;9.43;8.38;;;23.60;99.90;;;;;;5074280;28;20177;-48
2022/08/17 09:42:13;;;;;;;10.48;8.98;;;23.40;99.90;;;;;;5092774;28;20169;-45
2022/08/17 09:44:47;;;;;;;11.82;8.13;;;23.30;99.90;;;;;;5092886;28;20166;-48
2022/08/17 09:47:49;;;;;;;9.35;8.30;;;23.30;99.90;;;;;;5093204;28;20161;-44
2022/08/17 09:50:27;;;;;;;10.63;8.57;;;23.30;99.90;;;;;;5093160;28;20169;-47
2022/08/17 09:52:57;;;;;;;8.98;8.05;;;23.10;99.90;;;;;;5092767;28;20165;-45
2022/08/17 09:55:37;;;;;;;9.98;8.90;;;23.10;99.90;;;;;;5095501;28;20194;-43
2022/08/17 09:58:23;;;;;;;9.32;8.07;;;23.20;99.90;;;;;;5101432;28;20175;-45
2022/08/17 10:01:23;;;;;;;10.00;8.15;;;23.10;99.90;;;;;;5110620;28;20655;-43
2022/08/17 10:04:22;;;;;;;9.10;7.72;;;23.10;99.90;;;;;;5090433;28;20258;-46
2022/08/17 10:07:00;;;;;;;9.05;8.15;;;23.10;99.90;;;;;;5112794;28;20160;-42
2022/08/17 10:10:11;;;;;;;9.68;8.70;;;23.00;99.90;;;;;;5112356;28;20225;-44
2022/08/17 10:12:56;;;;;;;11.20;8.50;;;22.90;99.90;;;;;;5107844;28;20180;-50
2022/08/17 10:16:06;;;;;;;12.50;8.98;;;23.00;99.90;;;;;;5112691;28;20197;-44
2022/08/17 10:19:10;;;;;;;12.35;9.15;;;22.80;99.90;;;;;;5112567;28;20535;-42
2022/08/17 10:27:16;;;;;;;13.05;10.30;;;22.60;99.90;;;;;;5112826;28;20167;-42
2022/08/17 10:29:54;;;;;;;13.57;11.27;;;22.50;99.90;;;;;;5112570;28;20530;-48
2022/08/17 10:32:36;;;;;;;15.30;11.30;;;22.40;99.90;;;;;;5112515;28;20184;-46
2022/08/17 10:35:13;;;;;;;13.88;11.50;;;22.50;99.90;;;;;;5111431;28;20196;-45
2022/08/17 10:38:05;;;;;;;13.50;11.45;;;22.30;99.90;;;;;;5112497;28;20642;-42
2022/08/17 10:41:01;;;;;;;13.07;11.63;;;22.40;99.90;;;;;;5061157;28;20482;-48
2022/08/17 10:43:43;;;;;;;13.90;12.45;;;22.60;99.90;;;;;;5112328;28;20179;-45
2022/08/17 10:46:23;;;;;;;12.73;11.43;;;22.60;99.90;;;;;;5112265;28;20172;-44
2022/08/17 10:49:16;;;;;;;13.10;11.57;;;22.60;99.90;;;;;;5112448;28;20187;-48
2022/08/17 10:51:44;;;;;;;14.20;12.32;;;22.80;99.90;;;;;;5112254;28;20161;-45
2022/08/17 10:54:35;;;;;;;15.60;12.35;;;22.80;99.90;;;;;;5112416;28;20160;-44
2022/08/17 10:57:00;;;;;;;13.32;11.93;;;22.60;99.90;;;;;;5100000;28;20197;-43
2022/08/17 10:59:35;;;;;;;14.18;12.65;;;22.40;99.90;;;;;;5112441;28;20288;-48
2022/08/17 11:02:16;;;;;;;13.82;12.43;;;22.40;99.90;;;;;;5112186;28;20172;-47
2022/08/17 11:04:45;;;;;;;15.82;12.98;;;22.40;99.90;;;;;;5112151;28;20198;-48
2022/08/17 11:07:13;;;;;;;14.60;12.82;;;22.50;99.90;;;;;;5112346;28;20171;-42
2022/08/17 11:09:53;;;;;;;15.25;13.65;;;22.70;99.90;;;;;;5111958;28;20192;-43
2022/08/17 11:12:54;;;;;;;14.82;13.32;;;23.10;99.90;;;;;;5112024;28;20168;-46
2022/08/17 11:15:40;;;;;;;15.70;12.45;;;23.80;99.90;;;;;;5058090;28;20243;-43
2022/08/17 11:18:24;;;;;;;17.77;13.95;;;24.00;99.90;;;;;;5111848;28;20235;-44
2022/08/17 11:21:19;;;;;;;14.48;13.00;;;24.00;99.90;;;;;;5112180;28;20537;-45
2022/08/17 11:24:00;;;;;;;16.05;13.02;;;24.00;99.90;;;;;;5112524;28;20180;-47
2022/08/17 11:26:29;;;;;;;16.73;12.18;;;24.40;99.90;;;;;;5112117;28;20179;-43
2022/08/17 11:29:17;;;;;;;12.73;11.43;;;24.80;99.90;;;;;;5111090;28;20179;-51
2022/08/17 11:31:59;;;;;;;15.55;12.05;;;25.20;99.90;;;;;;5111894;28;20266;-50
2022/08/17 11:34:28;;;;;;;13.95;12.65;;;24.90;99.90;;;;;;5111280;28;20172;-50
2022/08/17 11:37:03;;;;;;;15.90;14.18;;;24.60;99.90;;;;;;5111344;28;20651;-45
2022/08/17 11:39:39;;;;;;;14.55;12.52;;;24.40;99.90;;;;;;5111774;28;20171;-46
2022/08/17 11:42:18;;;;;;;14.93;13.23;;;24.40;99.90;;;;;;5111542;28;20329;-48
2022/08/17 11:44:52;;;;;;;14.57;13.07;;;24.30;99.90;;;;;;5111477;28;20286;-45
2022/08/17 11:53:36;;;;;;;15.38;13.43;;;24.70;99.90;;;;;;5115230;28;20197;-42
2022/08/17 11:56:39;;;;;;;15.82;12.40;;;24.50;99.90;;;;;;5114053;28;20595;-50
2022/08/17 11:59:38;;;;;;;15.60;12.98;;;24.90;99.90;;;;;;5027217;28;20519;-43
2022/08/17 12:02:18;;;;;;;14.65;13.15;;;24.90;99.90;;;;;;5115161;28;20172;-50
2022/08/17 12:05:03;;;;;;;15.85;14.25;;;25.10;99.90;;;;;;5115532;28;20164;-49
2022/08/17 12:07:31;;;;;;;14.85;13.38;;;24.90;99.90;;;;;;5115433;28;20164;-49
2022/08/17 12:09:59;;;;;;;15.30;13.80;;;25.20;99.90;;;;;;5115332;28;20203;-51
2022/08/17 12:12:32;;;;;;;15.98;14.20;;;25.40;99.90;;;;;;5115102;28;20172;-48
2022/08/17 12:15:00;;;;;;;16.05;14.38;;;25.20;99.90;;;;;;5114728;28;20702;-50
2022/08/17 12:17:28;;;;;;;17.95;15.40;;;25.50;99.90;;;;;;5114005;28;20194;-51
2022/08/17 12:20:06;;;;;;;16.65;14.80;;;25.80;99.90;;;;;;5114512;28;20594;-47
2022/08/17 12:23:03;;;;;;;18.05;16.15;;;25.80;99.90;;;;;;5095965;28;20164;-45
2022/08/17 12:25:32;;;;;;;16.35;14.60;;;25.90;99.90;;;;;;5114818;28;20175;-50
2022/08/17 12:27:59;;;;;;;19.17;16.13;;;25.90;99.90;;;;;;5114515;28;20172;-44
2022/08/17 12:30:25;;;;;;;19.77;17.38;;;25.90;99.90;;;;;;5114313;28;20171;-45
2022/08/17 12:32:52;;;;;;;17.63;15.82;;;25.60;99.90;;;;;;5114504;28;20659;-48
2022/08/17 12:35:20;;;;;;;17.20;15.40;;;25.50;99.90;;;;;;5114375;28;20199;-48
2022/08/17 12:37:49;;;;;;;17.85;16.15;;;25.70;99.90;;;;;;5114651;28;20199;-46
2022/08/17 12:40:22;;;;;;;15.98;14.38;;;25.70;99.90;;;;;;5114992;28;20172;-47
2022/08/17 12:42:55;;;;;;;17.25;15.50;;;26.10;99.90;;;;;;5114409;28;20171;-44
2022/08/17 12:45:31;;;;;;;17.65;15.85;;;26.10;99.90;;;;;;5113848;28;20176;-47
2022/08/17 12:48:09;;;;;;;16.02;14.43;;;26.50;99.90;;;;;;5114053;28;20209;-44
2022/08/17 12:50:37;;;;;;;19.02;15.55;;;26.50;99.90;;;;;;5113574;28;20196;-42
2022/08/17 12:53:10;;;;;;;17.52;15.75;;;26.70;99.90;;;;;;5113778;28;20567;-44
2022/08/17 12:55:37;;;;;;;16.48;14.95;;;26.90;99.90;;;;;;5113904;28;20725;-42
2022/08/17 12:58:03;;;;;;;33.78;16.58;;;26.70;99.90;;;;;;5112927;28;20176;-41
2022/08/17 13:00:42;;;;;;;16.63;15.05;;;26.70;99.90;;;;;;5113315;28;20160;-42
2022/08/17 13:03:19;;;;;;;17.70;14.95;;;26.40;99.90;;;;;;5113778;28;20241;-42
2022/08/17 13:05:51;;;;;;;17.42;15.60;;;26.30;99.90;;;;;;5114105;28;20172;-41
2022/08/17 13:08:22;;;;;;;16.17;14.68;;;26.40;99.90;;;;;;5114047;28;20239;-42
2022/08/17 13:10:57;;;;;;;17.88;16.00;;;26.70;99.90;;;;;;5113949;28;20172;-42
2022/08/17 13:13:32;;;;;;;17.48;15.68;;;27.00;99.90;;;;;;5113542;28;20290;-42
2022/08/17 13:16:02;;;;;;;18.13;16.33;;;27.10;99.90;;;;;;5113477;28;20282;-41
2022/08/17 13:18:48;;;;;;;18.25;15.98;;;27.10;99.90;;;;;;5113657;28;20188;-50
2022/08/17 13:21:17;;;;;;;18.25;16.45;;;27.00;99.90;;;;;;5095440;28;20164;-46
2022/08/17 13:23:54;;;;;;;16.90;15.07;;;27.00;99.90;;;;;;5113789;28;20153;-49
2022/08/17 13:26:28;;;;;;;17.48;15.77;;;27.20;99.90;;;;;;5113733;28;20567;-41
2022/08/17 13:28:53;;;;;;;17.17;15.30;;;27.10;99.90;;;;;;5113225;28;20168;-44
2022/08/17 13:31:34;;;;;;;17.25;15.57;;;27.30;99.90;;;;;;5113198;28;20160;-42
2022/08/17 13:34:27;;;;;;;16.27;14.65;;;27.30;99.90;;;;;;5113274;28;20523;-43
2022/08/17 13:37:33;;;;;;;17.80;15.93;;;27.00;99.90;;;;;;5113133;28;20200;-46
2022/08/17 13:40:28;;;;;;;16.25;14.65;;;26.90;99.90;;;;;;5113044;28;20160;-49
2022/08/17 13:42:55;;;;;;;21.33;17.58;;;26.60;99.90;;;;;;5113083;28;20171;-44
2022/08/17 13:45:35;;;;;;;18.25;16.58;;;26.20;99.90;;;;;;5113190;28;20156;-43
2022/08/17 13:48:23;;;;;;;18.35;16.42;;;26.30;99.90;;;;;;5113074;28;20168;-41